createdAt,value
2023-04-22T00:00:54.850Z,100379.41
2023-04-22T00:03:23.079Z,100373.69
2023-04-22T00:05:49.819Z,100364.72
2023-04-22T00:08:16.348Z,100371.88
2023-04-22T00:10:42.794Z,100362.09
2023-04-22T00:13:09.217Z,100371.34
2023-04-22T00:15:35.656Z,100368.91
2023-04-22T00:18:02.834Z,100368.09
2023-04-22T00:20:29.373Z,100363.69
2023-04-22T00:22:55.927Z,100364.81
2023-04-22T00:25:22.388Z,100368.63
2023-04-22T00:27:48.933Z,100356.53
2023-04-22T00:30:15.497Z,100354.56
2023-04-22T00:32:42.095Z,100352.50
2023-04-22T00:35:08.847Z,100353.25
2023-04-22T00:37:35.282Z,100354.75
2023-04-22T00:40:01.841Z,100354.16
2023-04-22T00:42:28.249Z,100356.88
2023-04-22T00:44:55.176Z,100363.81
2023-04-22T00:47:26.624Z,100356.53
2023-04-22T00:49:53.967Z,100350.81
2023-04-22T00:52:20.312Z,100358.16
2023-04-22T00:54:46.870Z,100360.94
2023-04-22T00:57:13.246Z,100356.06
2023-04-22T00:59:40.018Z,100360.16
2023-04-22T01:02:07.029Z,100351.69
2023-04-22T01:04:34.471Z,100357.38
2023-04-22T01:07:01.646Z,100359.81
2023-04-22T01:09:28.273Z,100361.97
2023-04-22T01:11:54.791Z,100369.59
2023-04-22T01:14:21.180Z,100369.59
2023-04-22T01:16:48.410Z,100362.97
2023-04-22T01:19:15.140Z,100362.94
2023-04-22T01:21:44.854Z,100368.94
2023-04-22T01:24:11.329Z,100364.00
2023-04-22T01:26:37.894Z,100365.66
2023-04-22T01:29:05.428Z,100365.13
2023-04-22T01:31:33.403Z,100360.25
2023-04-22T01:34:00.070Z,100361.03
2023-04-22T01:36:27.054Z,100372.72
2023-04-22T01:38:54.008Z,100365.13
2023-04-22T01:41:21.125Z,100362.69
2023-04-22T01:43:48.302Z,100364.00
2023-04-22T01:46:16.688Z,100361.03
2023-04-22T01:48:43.504Z,100359.66
2023-04-22T01:51:09.965Z,100358.56
2023-04-22T01:53:36.344Z,100361.03
2023-04-22T01:56:02.948Z,100353.16
2023-04-22T01:58:29.828Z,100354.31
2023-04-22T02:00:56.407Z,100355.91
2023-04-22T02:03:22.728Z,100353.19
2023-04-22T02:05:49.283Z,100354.25
2023-04-22T02:08:15.697Z,100342.91
2023-04-22T02:10:42.178Z,100355.19
2023-04-22T02:13:08.735Z,100355.50
2023-04-22T02:15:35.785Z,100339.22
2023-04-22T02:18:02.202Z,100342.50
2023-04-22T02:20:29.352Z,100344.66
2023-04-22T02:22:55.800Z,100336.50
2023-04-22T02:25:22.148Z,100334.91
2023-04-22T02:27:48.588Z,100328.19
2023-04-22T02:30:14.978Z,100323.00
2023-04-22T02:32:41.441Z,100316.47
2023-04-22T02:35:08.454Z,100316.66
2023-04-22T02:37:34.816Z,100315.34
2023-04-22T02:40:01.241Z,100324.59
2023-04-22T02:42:27.632Z,100333.31
2023-04-22T02:44:54.030Z,100327.88
2023-04-22T02:47:20.963Z,100331.16
2023-04-22T02:49:47.544Z,100330.16
2023-04-22T02:52:13.909Z,100328.50
2023-04-22T02:54:40.312Z,100330.09
2023-04-22T02:57:06.778Z,100330.16
2023-04-22T02:59:34.820Z,100322.00
2023-04-22T03:02:01.682Z,100323.94
2023-04-22T03:04:28.372Z,100315.25
2023-04-22T03:06:54.866Z,100319.34
2023-04-22T03:09:21.282Z,100315.03
2023-04-22T03:11:47.641Z,100314.00
2023-04-22T03:14:13.961Z,100309.66
2023-04-22T03:16:40.446Z,100312.94
2023-04-22T03:19:06.848Z,100304.53
2023-04-22T03:21:33.297Z,100299.91
2023-04-22T03:23:59.806Z,100292.84
2023-04-22T03:26:26.147Z,100300.50
2023-04-22T03:28:52.490Z,100304.59
2023-04-22T03:31:19.394Z,100303.22
2023-04-22T03:33:46.575Z,100304.06
2023-04-22T03:36:12.964Z,100301.34
2023-04-22T03:38:39.332Z,100292.09
2023-04-22T03:41:05.738Z,100291.03
2023-04-22T03:43:32.070Z,100293.53
2023-04-22T03:45:59.814Z,100287.00
2023-04-22T03:48:26.151Z,100287.56
2023-04-22T03:50:52.470Z,100287.59
2023-04-22T03:53:18.959Z,100301.47
2023-04-22T03:55:45.503Z,100296.03
2023-04-22T03:58:11.872Z,100300.13
2023-04-22T04:00:38.330Z,100283.00
2023-04-22T04:03:05.404Z,100282.16
2023-04-22T04:05:32.120Z,100281.63
2023-04-22T04:07:58.677Z,100268.84
2023-04-22T04:10:25.205Z,100265.31
2023-04-22T04:12:51.621Z,100262.06
2023-04-22T04:15:21.465Z,100267.50
2023-04-22T04:17:48.272Z,100270.00
2023-04-22T04:20:15.763Z,100268.13
2023-04-22T04:22:43.446Z,100269.75
2023-04-22T04:25:10.354Z,100254.53
2023-04-22T04:27:39.060Z,100257.78
2023-04-22T04:30:07.104Z,100258.09
2023-04-22T04:32:36.696Z,100250.16
2023-04-22T04:35:03.141Z,100251.53
2023-04-22T04:37:29.633Z,100253.44
2023-04-22T04:39:59.152Z,100250.75
2023-04-22T04:42:25.722Z,100255.09
2023-04-22T04:44:53.556Z,100251.56
2023-04-22T04:47:20.038Z,100244.22
2023-04-22T04:49:47.166Z,100244.22
2023-04-22T04:52:13.613Z,100251.84
2023-04-22T04:54:40.007Z,100240.97
2023-04-22T04:57:06.563Z,100245.31
2023-04-22T04:59:32.990Z,100238.78
2023-04-22T05:01:59.445Z,100236.06
2023-04-22T05:04:26.004Z,100238.00
2023-04-22T05:06:53.031Z,100238.81
2023-04-22T05:09:19.383Z,100237.69
2023-04-22T05:11:45.716Z,100247.50
2023-04-22T05:14:12.109Z,100243.72
2023-04-22T05:16:38.748Z,100242.09
2023-04-22T05:19:05.187Z,100249.97
2023-04-22T05:21:32.501Z,100246.47
2023-04-22T05:23:58.966Z,100256.78
2023-04-22T05:26:25.918Z,100261.69
2023-04-22T05:28:52.404Z,100259.50
2023-04-22T05:31:18.813Z,100248.63
2023-04-22T05:33:45.170Z,100249.72
2023-04-22T05:36:11.743Z,100257.63
2023-04-22T05:38:39.267Z,100254.09
2023-04-22T05:41:05.973Z,100254.63
2023-04-22T05:43:32.391Z,100260.09
2023-04-22T05:45:58.810Z,100263.31
2023-04-22T05:48:25.333Z,100260.34
2023-04-22T05:50:51.767Z,100252.41
2023-04-22T05:53:18.293Z,100257.31
2023-04-22T05:55:44.715Z,100251.31
2023-04-22T05:58:11.246Z,100252.94
2023-04-22T06:00:37.755Z,100261.38
2023-04-22T06:03:04.665Z,100260.00
2023-04-22T06:05:31.261Z,100255.66
2023-04-22T06:07:57.757Z,100259.44
2023-04-22T06:10:24.222Z,100262.47
2023-04-22T06:12:50.678Z,100258.38
2023-04-22T06:15:17.176Z,100255.63
2023-04-22T06:17:44.307Z,100262.44
2023-04-22T06:20:11.588Z,100254.25
2023-04-22T06:22:37.935Z,100258.38
2023-04-22T06:25:04.656Z,100272.53
2023-04-22T06:27:31.028Z,100252.34
2023-04-22T06:29:57.387Z,100267.59
2023-04-22T06:32:23.718Z,100264.28
2023-04-22T06:34:50.159Z,100260.44
2023-04-22T06:37:16.466Z,100251.66
2023-04-22T06:39:43.125Z,100255.47
2023-04-22T06:42:09.717Z,100254.88
2023-04-22T06:44:36.086Z,100254.25
2023-04-22T06:47:02.605Z,100253.72
2023-04-22T06:49:29.265Z,100250.91
2023-04-22T06:51:55.671Z,100252.50
2023-04-22T06:54:21.996Z,100248.91
2023-04-22T06:56:48.831Z,100250.53
2023-04-22T06:59:15.312Z,100241.94
2023-04-22T07:01:41.764Z,100246.44
2023-04-22T07:04:08.387Z,100240.59
2023-04-22T07:06:34.787Z,100238.84
2023-04-22T07:09:01.253Z,100228.13
2023-04-22T07:11:27.783Z,100234.78
2023-04-22T07:13:54.117Z,100234.16
2023-04-22T07:16:20.527Z,100231.19
2023-04-22T07:18:47.497Z,100230.38
2023-04-22T07:21:14.100Z,100237.78
2023-04-22T07:23:40.430Z,100231.03
2023-04-22T07:26:06.802Z,100222.13
2023-04-22T07:28:33.184Z,100233.75
2023-04-22T07:30:59.573Z,100230.13
2023-04-22T07:33:26.078Z,100226.72
2023-04-22T07:35:52.498Z,100233.34
2023-04-22T07:38:18.849Z,100224.13
2023-04-22T07:40:45.426Z,100224.41
2023-04-22T07:43:11.853Z,100220.22
2023-04-22T07:45:38.309Z,100216.25
2023-04-22T07:48:04.992Z,100217.19
2023-04-22T07:50:31.602Z,100211.28
2023-04-22T07:52:58.162Z,100219.91
2023-04-22T07:55:24.697Z,100213.69
2023-04-22T07:57:51.048Z,100205.06
2023-04-22T08:00:17.514Z,100203.75
2023-04-22T08:02:44.252Z,100204.66
2023-04-22T08:05:11.551Z,100203.69
2023-04-22T08:07:38.014Z,100192.06
2023-04-22T08:10:05.550Z,100199.06
2023-04-22T08:12:31.925Z,100195.13
2023-04-22T08:14:58.603Z,100187.81
2023-04-22T08:17:25.135Z,100181.25
2023-04-22T08:19:51.561Z,100187.53
2023-04-22T08:22:18.957Z,100184.56
2023-04-22T08:24:45.295Z,100186.97
2023-04-22T08:27:11.654Z,100178.06
2023-04-22T08:29:38.403Z,100181.19
2023-04-22T08:32:05.018Z,100168.91
2023-04-22T08:34:31.758Z,100170.47
2023-04-22T08:36:58.383Z,100176.59
2023-04-22T08:39:24.756Z,100166.44
2023-04-22T08:41:51.754Z,100166.84
2023-04-22T08:44:19.664Z,100169.81
2023-04-22T08:46:47.197Z,100166.88
2023-04-22T08:49:16.986Z,100170.69
2023-04-22T08:51:44.423Z,100177.28
2023-04-22T08:54:11.510Z,100163.22
2023-04-22T08:56:43.266Z,100160.56
2023-04-22T08:59:11.546Z,100162.34
2023-04-22T09:01:39.725Z,100145.53
2023-04-22T09:04:06.894Z,100156.34
2023-04-22T09:06:33.535Z,100160.75
2023-04-22T09:09:01.190Z,100156.94
2023-04-22T09:11:29.174Z,100149.47
2023-04-22T09:13:55.632Z,100142.34
2023-04-22T09:16:22.053Z,100129.88
2023-04-22T09:18:49.704Z,100133.44
2023-04-22T09:21:16.523Z,100124.88
2023-04-22T09:23:53.689Z,100124.34
2023-04-22T09:26:24.574Z,100125.47
2023-04-22T09:28:52.833Z,100133.69
2023-04-22T09:31:20.668Z,100129.16
2023-04-22T09:33:52.425Z,100136.44
2023-04-22T09:36:37.599Z,100137.06
2023-04-22T09:39:09.016Z,100125.06
2023-04-22T09:41:40.323Z,100131.06
2023-04-22T09:44:18.128Z,100141.25
2023-04-22T09:46:45.312Z,100138.34
2023-04-22T09:49:12.275Z,100129.38
2023-04-22T09:51:42.461Z,100123.06
2023-04-22T09:54:10.499Z,100129.84
2023-04-22T09:56:48.093Z,100128.88
2023-04-22T09:59:28.571Z,100129.69
2023-04-22T10:01:57.713Z,100121.94
2023-04-22T10:04:25.609Z,100115.91
2023-04-22T10:06:53.398Z,100128.03
2023-04-22T10:09:22.894Z,100134.00
2023-04-22T10:11:52.277Z,100126.28
2023-04-22T10:14:19.660Z,100116.50
2023-04-22T10:16:47.717Z,100132.81
2023-04-22T10:19:19.112Z,100143.38
2023-04-22T10:21:47.238Z,100125.41
2023-04-22T10:24:20.285Z,100130.97
2023-04-22T10:26:57.615Z,100146.50
2023-04-22T10:29:25.802Z,100144.53
2023-04-22T10:32:05.542Z,100141.09
2023-04-22T10:34:32.530Z,100136.00
2023-04-22T10:37:07.524Z,100123.84
2023-04-22T10:39:33.909Z,100122.94
2023-04-22T10:42:03.323Z,100133.00
2023-04-22T10:44:54.755Z,100146.34
2023-04-22T10:47:29.560Z,100122.72
2023-04-22T10:50:10.352Z,100124.88
2023-04-22T10:52:37.280Z,100121.44
2023-04-22T10:55:04.020Z,100123.50
2023-04-22T10:57:40.541Z,100125.75
2023-04-22T11:00:19.148Z,100134.03
2023-04-22T11:02:47.172Z,100139.03
2023-04-22T11:05:20.890Z,100152.78
2023-04-22T11:07:49.537Z,100153.06
2023-04-22T11:10:37.162Z,100157.91
2023-04-22T11:13:03.759Z,100147.63
2023-04-22T11:15:31.440Z,100145.06
2023-04-22T11:17:58.253Z,100153.16
2023-04-22T11:20:24.918Z,100154.38
2023-04-22T11:22:55.442Z,100141.94
2023-04-22T11:25:22.979Z,100143.75
2023-04-22T11:27:49.876Z,100158.84
2023-04-22T11:30:18.562Z,100147.91
2023-04-22T11:32:46.867Z,100148.13
2023-04-22T11:35:22.068Z,100141.31
2023-04-22T11:37:55.753Z,100154.38
2023-04-22T11:40:39.324Z,100156.41
2023-04-22T11:43:08.922Z,100153.31
2023-04-22T11:45:36.890Z,100158.72
2023-04-22T11:48:06.438Z,100159.28
2023-04-22T11:50:36.179Z,100146.13
2023-04-22T11:53:14.801Z,100149.81
2023-04-22T11:55:42.089Z,100136.38
2023-04-22T11:58:11.621Z,100143.25
2023-04-22T12:00:47.408Z,100145.69
2023-04-22T12:03:18.260Z,100151.19
2023-04-22T12:06:04.880Z,100142.63
2023-04-22T12:08:33.697Z,100144.31
2023-04-22T12:11:02.500Z,100145.94
2023-04-22T12:13:34.735Z,100156.13
2023-04-22T12:16:06.671Z,100154.53
2023-04-22T12:18:37.973Z,100155.78
2023-04-22T12:21:04.256Z,100149.25
2023-04-22T12:23:40.945Z,100148.72
2023-04-22T12:26:07.618Z,100155.09
2023-04-22T12:28:33.986Z,100151.53
2023-04-22T12:31:00.476Z,100155.38
2023-04-22T12:33:27.036Z,100151.53
2023-04-22T12:35:53.537Z,100153.44
2023-04-22T12:38:20.289Z,100149.84
2023-04-22T12:40:46.632Z,100158.13
2023-04-22T12:43:13.311Z,100151.28
2023-04-22T12:45:40.791Z,100143.47
2023-04-22T12:48:07.721Z,100144.81
2023-04-22T12:50:34.104Z,100138.59
2023-04-22T12:53:00.566Z,100136.31
2023-04-22T12:55:27.204Z,100137.13
2023-04-22T12:57:53.800Z,100139.38
2023-04-22T13:00:20.556Z,100145.44
2023-04-22T13:02:48.890Z,100138.03
2023-04-22T13:05:17.012Z,100135.91
2023-04-22T13:07:45.398Z,100143.25
2023-04-22T13:10:14.975Z,100134.16
2023-04-22T13:12:42.861Z,100136.31
2023-04-22T13:15:10.853Z,100142.06
2023-04-22T13:17:38.110Z,100136.41
2023-04-22T13:20:06.870Z,100141.31
2023-04-22T13:22:33.866Z,100144.28
2023-04-22T13:25:00.299Z,100145.47
2023-04-22T13:27:26.939Z,100135.44
2023-04-22T13:29:53.276Z,100141.94
2023-04-22T13:32:19.786Z,100147.19
2023-04-22T13:34:46.330Z,100147.81
2023-04-22T13:37:14.915Z,100135.19
2023-04-22T13:39:41.893Z,100141.19
2023-04-22T13:42:08.637Z,100150.47
2023-04-22T13:44:35.172Z,100149.72
2023-04-22T13:47:02.776Z,100139.34
2023-04-22T13:49:29.338Z,100151.84
2023-04-22T13:51:56.274Z,100152.03
2023-04-22T13:54:23.060Z,100154.47
2023-04-22T13:56:49.906Z,100150.75
2023-04-22T13:59:16.685Z,100151.53
2023-04-22T14:01:43.230Z,100145.88
2023-04-22T14:04:11.771Z,100140.03
2023-04-22T14:06:39.714Z,100143.47
2023-04-22T14:09:06.937Z,100142.50
2023-04-22T14:11:33.783Z,100146.56
2023-04-22T14:14:00.190Z,100146.88
2023-04-22T14:16:26.609Z,100153.34
2023-04-22T14:18:53.773Z,100144.31
2023-04-22T14:21:20.159Z,100134.72
2023-04-22T14:23:46.513Z,100144.13
2023-04-22T14:26:12.878Z,100146.09
2023-04-22T14:28:40.571Z,100146.41
2023-04-22T14:31:07.175Z,100134.09
2023-04-22T14:33:33.767Z,100136.84
2023-04-22T14:36:00.290Z,100144.13
2023-04-22T14:38:26.864Z,100141.22
2023-04-22T14:40:53.296Z,100147.53
2023-04-22T14:43:19.779Z,100154.00
2023-04-22T14:45:47.349Z,100141.03
2023-04-22T14:48:13.875Z,100142.19
2023-04-22T14:50:40.402Z,100137.19
2023-04-22T14:53:06.930Z,100141.16
2023-04-22T14:55:35.365Z,100146.53
2023-04-22T14:58:01.731Z,100142.94
2023-04-22T15:00:28.627Z,100145.88
2023-04-22T15:02:56.022Z,100148.44
2023-04-22T15:05:23.467Z,100147.19
2023-04-22T15:07:51.085Z,100151.25
2023-04-22T15:10:17.485Z,100146.34
2023-04-22T15:12:44.924Z,100158.50
2023-04-22T15:15:13.994Z,100167.22
2023-04-22T15:17:41.085Z,100165.91
2023-04-22T15:20:09.239Z,100171.16
2023-04-22T15:22:36.963Z,100164.97
2023-04-22T15:25:03.849Z,100163.00
2023-04-22T15:27:30.608Z,100160.75
2023-04-22T15:29:57.614Z,100162.88
2023-04-22T15:32:24.013Z,100161.91
2023-04-22T15:34:50.539Z,100160.13
2023-04-22T15:37:17.048Z,100158.69
2023-04-22T15:39:43.541Z,100158.81
2023-04-22T15:42:09.989Z,100159.63
2023-04-22T15:44:36.470Z,100154.31
2023-04-22T15:47:03.787Z,100154.31
2023-04-22T15:49:30.485Z,100153.66
2023-04-22T15:51:57.799Z,100148.63
2023-04-22T15:54:24.136Z,100150.06
2023-04-22T15:56:50.555Z,100150.88
2023-04-22T15:59:16.961Z,100144.22
2023-04-22T16:01:45.808Z,100141.41
2023-04-22T16:04:13.377Z,100142.88
2023-04-22T16:06:40.450Z,100141.66
2023-04-22T16:09:06.867Z,100142.31
2023-04-22T16:11:33.283Z,100137.81
2023-04-22T16:13:59.649Z,100148.94
2023-04-22T16:16:26.760Z,100148.91
2023-04-22T16:18:53.532Z,100148.06
2023-04-22T16:21:19.927Z,100150.31
2023-04-22T16:23:46.268Z,100153.56
2023-04-22T16:26:12.709Z,100150.00
2023-04-22T16:28:39.046Z,100149.97
2023-04-22T16:31:05.550Z,100148.78
2023-04-22T16:33:33.161Z,100154.91
2023-04-22T16:35:59.512Z,100153.59
2023-04-22T16:38:25.945Z,100151.03
2023-04-22T16:40:54.239Z,100152.09
2023-04-22T16:43:20.863Z,100161.78
2023-04-22T16:45:47.438Z,100166.91
2023-04-22T16:48:13.935Z,100161.53
2023-04-22T16:50:40.623Z,100158.06
2023-04-22T16:53:08.669Z,100151.53
2023-04-22T16:55:36.865Z,100150.22
2023-04-22T16:58:03.910Z,100147.09
2023-04-22T17:00:30.590Z,100160.72
2023-04-22T17:02:57.093Z,100154.53
2023-04-22T17:05:23.597Z,100163.88
2023-04-22T17:07:49.935Z,100167.97
2023-04-22T17:10:16.372Z,100166.75
2023-04-22T17:12:42.682Z,100171.53
2023-04-22T17:15:09.620Z,100169.59
2023-04-22T17:17:36.030Z,100172.66
2023-04-22T17:20:02.654Z,100174.28
2023-04-22T17:22:29.079Z,100192.00
2023-04-22T17:24:57.338Z,100183.75
2023-04-22T17:27:23.727Z,100190.97
2023-04-22T17:29:50.170Z,100187.72
2023-04-22T17:32:17.167Z,100188.63
2023-04-22T17:34:43.698Z,100185.88
2023-04-22T17:37:10.163Z,100192.78
2023-04-22T17:39:36.849Z,100199.19
2023-04-22T17:42:03.459Z,100195.31
2023-04-22T17:44:30.990Z,100202.03
2023-04-22T17:46:57.540Z,100194.22
2023-04-22T17:49:24.115Z,100200.28
2023-04-22T17:51:50.509Z,100198.56
2023-04-22T17:54:17.068Z,100197.97
2023-04-22T17:56:43.469Z,100204.78
2023-04-22T17:59:11.316Z,100203.13
2023-04-22T18:01:39.071Z,100207.91
2023-04-22T18:04:05.840Z,100209.31
2023-04-22T18:06:32.445Z,100211.66
2023-04-22T18:08:58.895Z,100209.22
2023-04-22T18:11:25.783Z,100216.75
2023-04-22T18:13:52.496Z,100219.59
2023-04-22T18:16:18.981Z,100211.56
2023-04-22T18:18:45.522Z,100209.59
2023-04-22T18:21:11.885Z,100218.16
2023-04-22T18:23:39.189Z,100219.41
2023-04-22T18:26:09.664Z,100222.03
2023-04-22T18:28:37.033Z,100218.78
2023-04-22T18:31:03.513Z,100215.91
2023-04-22T18:33:30.093Z,100212.78
2023-04-22T18:35:56.553Z,100215.00
2023-04-22T18:38:23.099Z,100223.16
2023-04-22T18:40:49.494Z,100222.88
2023-04-22T18:43:16.120Z,100229.75
2023-04-22T18:45:42.654Z,100235.31
2023-04-22T18:48:09.077Z,100221.63
2023-04-22T18:50:35.511Z,100239.75
2023-04-22T18:53:02.019Z,100235.66
2023-04-22T18:55:28.641Z,100227.75
2023-04-22T18:57:55.007Z,100236.28
2023-04-22T19:00:21.765Z,100235.81
2023-04-22T19:02:48.362Z,100235.56
2023-04-22T19:05:14.967Z,100239.72
2023-04-22T19:07:44.469Z,100241.44
2023-04-22T19:10:11.477Z,100236.91
2023-04-22T19:12:37.858Z,100244.63
2023-04-22T19:15:04.885Z,100245.25
2023-04-22T19:17:31.333Z,100243.13
2023-04-22T19:19:57.673Z,100238.19
2023-04-22T19:22:24.447Z,100250.50
2023-04-22T19:24:51.227Z,100248.59
2023-04-22T19:27:18.183Z,100238.19
2023-04-22T19:29:51.170Z,100249.69
2023-04-22T19:32:17.781Z,100246.72
2023-04-22T19:34:44.689Z,100245.09
2023-04-22T19:37:11.429Z,100250.88
2023-04-22T19:39:37.829Z,100255.41
2023-04-22T19:42:04.783Z,100254.59
2023-04-22T19:44:32.073Z,100260.50
2023-04-22T19:46:58.488Z,100249.81
2023-04-22T19:49:25.334Z,100249.81
2023-04-22T19:51:52.639Z,100244.59
2023-04-22T19:54:21.831Z,100254.19
2023-04-22T19:56:48.981Z,100259.38
2023-04-22T19:59:16.381Z,100263.19
2023-04-22T20:01:43.008Z,100286.25
2023-04-22T20:04:09.699Z,100283.34
2023-04-22T20:06:36.589Z,100290.69
2023-04-22T20:09:05.285Z,100283.34
2023-04-22T20:11:32.590Z,100291.28
2023-04-22T20:13:59.347Z,100291.81
2023-04-22T20:16:26.981Z,100298.66
2023-04-22T20:18:54.426Z,100290.44
2023-04-22T20:21:21.315Z,100298.69
2023-04-22T20:23:49.684Z,100304.16
2023-04-22T20:26:19.927Z,100301.72
2023-04-22T20:28:48.748Z,100297.16
2023-04-22T20:31:20.425Z,100300.53
2023-04-22T20:33:47.001Z,100304.09
2023-04-22T20:36:16.910Z,100306.50
2023-04-22T20:38:47.262Z,100299.47
2023-04-22T20:41:14.402Z,100307.22
2023-04-22T20:43:42.344Z,100313.59
2023-04-22T20:46:08.863Z,100308.66
2023-04-22T20:48:35.358Z,100313.31
2023-04-22T20:51:01.921Z,100314.91
2023-04-22T20:53:28.373Z,100317.63
2023-04-22T20:55:54.770Z,100314.41
2023-04-22T20:58:22.125Z,100323.72
2023-04-22T21:00:48.547Z,100321.59
2023-04-22T21:03:18.240Z,100316.69
2023-04-22T21:05:46.616Z,100319.69
2023-04-22T21:08:23.792Z,100322.75
2023-04-22T21:10:52.438Z,100324.91
2023-04-22T21:13:19.991Z,100322.50
2023-04-22T21:16:01.379Z,100333.44
2023-04-22T21:18:28.911Z,100334.00
2023-04-22T21:20:56.844Z,100339.19
2023-04-22T21:23:24.519Z,100333.75
2023-04-22T21:25:53.118Z,100337.03
2023-04-22T21:28:21.940Z,100340.34
2023-04-22T21:30:48.704Z,100338.69
2023-04-22T21:33:15.147Z,100345.53
2023-04-22T21:35:41.658Z,100343.34
2023-04-22T21:38:11.573Z,100347.75
2023-04-22T21:40:37.980Z,100347.75
2023-04-22T21:43:07.415Z,100349.75
2023-04-22T21:45:34.126Z,100353.81
2023-04-22T21:48:00.631Z,100361.22
2023-04-22T21:50:30.074Z,100366.13
2023-04-22T21:52:56.544Z,100355.22
2023-04-22T21:55:22.908Z,100348.13
2023-04-22T21:57:49.330Z,100355.25
2023-04-22T22:00:18.508Z,100356.88
2023-04-22T22:02:46.324Z,100357.19
2023-04-22T22:05:14.747Z,100353.38
2023-04-22T22:07:42.551Z,100359.09
2023-04-22T22:10:18.927Z,100353.63
2023-04-22T22:12:46.424Z,100364.31
2023-04-22T22:15:12.832Z,100360.47
2023-04-22T22:17:40.274Z,100361.25
2023-04-22T22:20:12.434Z,100361.53
2023-04-22T22:22:43.366Z,100370.03
2023-04-22T22:25:12.969Z,100371.13
2023-04-22T22:27:48.690Z,100369.50
2023-04-22T22:30:21.078Z,100368.41
2023-04-22T22:32:48.007Z,100371.69
2023-04-22T22:35:14.684Z,100383.47
2023-04-22T22:37:41.211Z,100374.50
2023-04-22T22:40:08.772Z,100385.13
2023-04-22T22:42:36.123Z,100386.50
2023-04-22T22:45:02.748Z,100386.78
2023-04-22T22:47:29.190Z,100379.69
2023-04-22T22:49:55.778Z,100381.59
2023-04-22T22:52:22.565Z,100382.69
2023-04-22T22:54:49.927Z,100387.03
2023-04-22T22:57:16.501Z,100386.25
2023-04-22T22:59:42.859Z,100388.13
2023-04-22T23:02:09.391Z,100385.66
2023-04-22T23:04:37.379Z,100388.44
2023-04-22T23:07:04.009Z,100387.03
2023-04-22T23:09:30.505Z,100387.88
2023-04-22T23:11:57.053Z,100388.16
2023-04-22T23:14:26.843Z,100385.69
2023-04-22T23:16:53.297Z,100383.81
2023-04-22T23:19:20.689Z,100390.91
2023-04-22T23:21:48.660Z,100387.63
2023-04-22T23:24:15.534Z,100386.53
2023-04-22T23:26:43.155Z,100387.09
2023-04-22T23:29:09.692Z,100383.81
2023-04-22T23:31:36.584Z,100388.16
2023-04-22T23:34:05.443Z,100376.16
2023-04-22T23:36:33.746Z,100380.00
2023-04-22T23:39:00.858Z,100372.38
2023-04-22T23:41:27.659Z,100372.63
2023-04-22T23:43:54.041Z,100367.44
2023-04-22T23:46:20.514Z,100372.91
2023-04-22T23:48:47.256Z,100372.63
2023-04-22T23:51:16.693Z,100366.88
2023-04-22T23:53:44.299Z,100370.16
2023-04-22T23:56:12.303Z,100370.16
2023-04-22T23:58:39.386Z,100363.63
